Argyle, Wisconsin
Current Conditions -  °F | °C
As of 5:15 PM on Friday 19 Dec 2014 (Local Time) from KEFT Reporting Station
Overcast Overcast  
Wind Chill: -7°   Ceiling: 1400
Heat Index: -3°   Visibility: 10mi
Dew Point: -5°   Wind: 6mph
Humidity: 86%   Direction: 170°S
Pressure: 30.28"   Gusts: NA
Location:  42.7°N, 89.87°W
Report Text: KEFT 192315Z AUTO 17005KT 10SM OVC014 M03/M05 A3028 RMK AO2
Loading
Personal Weather Stations






























Interactive Weather Map New forecast layout! Learn more

10-Day Weather Forecast

Advertisements
Track Severe Weather on mobile